Watts, Oklahoma
Current Conditions -  °F | °C
As of 4:35 PM on Friday 31 Oct 2014 (Local Time) from KSLG Reporting Station
Clear Clear  
Wind Chill: 50°   Ceiling: Unl
Heat Index: 50°   Visibility: 10mi
Dew Point: 27°   Wind: 16mph
Humidity: 40%   Direction: 10°N
Pressure: 30.37"   Gusts: 20mph
Location:  36.11°N, 94.57°W
Report Text: KSLG 312135Z AUTO 01014G17KT 10SM CLR 10/M03 A3037 RMK AO1
Loading
Personal Weather Stations






























Interactive Weather Map New forecast layout! Learn more

10-Day Weather Forecast

Advertisements
Track Severe Weather on mobile